sensor_id;sensor_type;location;lat;lon;timestamp;temperature;humidity
35603;DHT22;21725;50.836;4.368;2022-12-31T00:00:57;16.30;99.90
35603;DHT22;21725;50.836;4.368;2022-12-31T00:04:06;16.40;99.90
35603;DHT22;21725;50.836;4.368;2022-12-31T00:07:21;16.50;99.90
35603;DHT22;21725;50.836;4.368;2022-12-31T00:10:30;16.40;99.90
35603;DHT22;21725;50.836;4.368;2022-12-31T00:13:43;16.30;99.90
35603;DHT22;21725;50.836;4.368;2022-12-31T00:16:55;16.40;99.90
35603;DHT22;21725;50.836;4.368;2022-12-31T00:20:01;16.30;99.90
35603;DHT22;21725;50.836;4.368;2022-12-31T00:23:20;16.10;99.90
35603;DHT22;21725;50.836;4.368;2022-12-31T00:26:25;16.20;99.90
35603;DHT22;21725;50.836;4.368;2022-12-31T00:29:27;16.20;99.90
35603;DHT22;21725;50.836;4.368;2022-12-31T00:32:58;16.20;99.90
35603;DHT22;21725;50.836;4.368;2022-12-31T00:36:12;16.00;99.90
35603;DHT22;21725;50.836;4.368;2022-12-31T00:39:15;16.20;99.90
35603;DHT22;21725;50.836;4.368;2022-12-31T00:42:21;16.10;99.90
35603;DHT22;21725;50.836;4.368;2022-12-31T00:45:39;16.10;99.90
35603;DHT22;21725;50.836;4.368;2022-12-31T00:48:47;16.10;99.90
35603;DHT22;21725;50.836;4.368;2022-12-31T00:51:50;16.20;99.90
35603;DHT22;21725;50.836;4.368;2022-12-31T00:54:53;16.30;99.90
35603;DHT22;21725;50.836;4.368;2022-12-31T00:58:04;16.30;99.90
35603;DHT22;21725;50.836;4.368;2022-12-31T01:01:23;16.40;99.90
35603;DHT22;21725;50.836;4.368;2022-12-31T01:07:48;16.40;99.90
35603;DHT22;21725;50.836;4.368;2022-12-31T01:10:59;16.50;99.90
35603;DHT22;21725;50.836;4.368;2022-12-31T01:14:21;16.50;99.90
35603;DHT22;21725;50.836;4.368;2022-12-31T01:17:48;16.70;99.90
35603;DHT22;21725;50.836;4.368;2022-12-31T01:21:00;16.80;99.90
35603;DHT22;21725;50.836;4.368;2022-12-31T01:24:03;17.00;99.90
35603;DHT22;21725;50.836;4.368;2022-12-31T01:27:13;16.70;99.90
35603;DHT22;21725;50.836;4.368;2022-12-31T01:34:01;16.60;99.90
35603;DHT22;21725;50.836;4.368;2022-12-31T01:37:13;16.70;99.90
35603;DHT22;21725;50.836;4.368;2022-12-31T01:40:27;16.70;99.90
35603;DHT22;21725;50.836;4.368;2022-12-31T01:47:36;16.10;99.90
35603;DHT22;21725;50.836;4.368;2022-12-31T01:51:00;16.60;99.90
35603;DHT22;21725;50.836;4.368;2022-12-31T01:54:13;16.70;99.90
35603;DHT22;21725;50.836;4.368;2022-12-31T01:57:26;16.60;99.90
35603;DHT22;21725;50.836;4.368;2022-12-31T02:00:56;16.00;99.90
35603;DHT22;21725;50.836;4.368;2022-12-31T02:04:23;16.70;99.90
35603;DHT22;21725;50.836;4.368;2022-12-31T02:07:32;16.40;99.90
35603;DHT22;21725;50.836;4.368;2022-12-31T02:10:57;16.70;99.90
35603;DHT22;21725;50.836;4.368;2022-12-31T02:14:23;16.60;99.90
35603;DHT22;21725;50.836;4.368;2022-12-31T02:32:15;16.50;99.90
35603;DHT22;21725;50.836;4.368;2022-12-31T02:38:39;16.60;99.90
35603;DHT22;21725;50.836;4.368;2022-12-31T02:45:12;16.80;99.90
35603;DHT22;21725;50.836;4.368;2022-12-31T02:58:58;16.50;99.90
35603;DHT22;21725;50.836;4.368;2022-12-31T03:02:20;16.50;99.90
35603;DHT22;21725;50.836;4.368;2022-12-31T03:05:52;16.40;99.90
35603;DHT22;21725;50.836;4.368;2022-12-31T03:09:04;16.60;99.90
35603;DHT22;21725;50.836;4.368;2022-12-31T03:12:29;16.70;99.90
35603;DHT22;21725;50.836;4.368;2022-12-31T03:16:13;16.90;99.90
35603;DHT22;21725;50.836;4.368;2022-12-31T03:19:13;16.80;99.90
35603;DHT22;21725;50.836;4.368;2022-12-31T03:22:36;16.80;99.90
35603;DHT22;21725;50.836;4.368;2022-12-31T03:25:43;16.60;99.90
35603;DHT22;21725;50.836;4.368;2022-12-31T03:28:49;16.80;99.90
35603;DHT22;21725;50.836;4.368;2022-12-31T03:31:59;16.80;99.90
35603;DHT22;21725;50.836;4.368;2022-12-31T03:35:10;16.80;99.90
35603;DHT22;21725;50.836;4.368;2022-12-31T03:38:25;16.90;99.90
35603;DHT22;21725;50.836;4.368;2022-12-31T03:41:26;16.30;99.90
35603;DHT22;21725;50.836;4.368;2022-12-31T03:44:55;16.90;99.90
35603;DHT22;21725;50.836;4.368;2022-12-31T03:48:27;16.90;99.90
35603;DHT22;21725;50.836;4.368;2022-12-31T03:51:50;17.00;99.90
35603;DHT22;21725;50.836;4.368;2022-12-31T03:54:53;16.90;99.90
35603;DHT22;21725;50.836;4.368;2022-12-31T03:58:01;17.00;99.90
35603;DHT22;21725;50.836;4.368;2022-12-31T04:01:15;17.00;99.90
35603;DHT22;21725;50.836;4.368;2022-12-31T04:04:24;16.70;99.90
35603;DHT22;21725;50.836;4.368;2022-12-31T04:07:30;17.10;99.90
35603;DHT22;21725;50.836;4.368;2022-12-31T04:10:40;17.10;99.90
35603;DHT22;21725;50.836;4.368;2022-12-31T04:13:45;17.10;99.90
35603;DHT22;21725;50.836;4.368;2022-12-31T04:17:06;17.10;99.90
35603;DHT22;21725;50.836;4.368;2022-12-31T04:20:10;17.00;99.90
35603;DHT22;21725;50.836;4.368;2022-12-31T04:23:14;17.10;99.90
35603;DHT22;21725;50.836;4.368;2022-12-31T04:26:17;16.90;99.90
35603;DHT22;21725;50.836;4.368;2022-12-31T04:29:20;17.30;99.90
35603;DHT22;21725;50.836;4.368;2022-12-31T04:32:28;17.20;99.90
35603;DHT22;21725;50.836;4.368;2022-12-31T04:35:41;16.80;99.90
35603;DHT22;21725;50.836;4.368;2022-12-31T04:38:44;16.90;99.90
35603;DHT22;21725;50.836;4.368;2022-12-31T04:41:47;16.70;99.90
35603;DHT22;21725;50.836;4.368;2022-12-31T04:45:17;16.70;99.90
35603;DHT22;21725;50.836;4.368;2022-12-31T04:48:36;16.80;99.90
35603;DHT22;21725;50.836;4.368;2022-12-31T04:51:41;16.80;99.90
35603;DHT22;21725;50.836;4.368;2022-12-31T04:58:31;17.00;99.90
35603;DHT22;21725;50.836;4.368;2022-12-31T05:34:50;15.70;99.90
35603;DHT22;21725;50.836;4.368;2022-12-31T05:38:01;17.80;99.90
35603;DHT22;21725;50.836;4.368;2022-12-31T05:41:24;17.80;99.90
35603;DHT22;21725;50.836;4.368;2022-12-31T05:44:34;17.60;99.90
35603;DHT22;21725;50.836;4.368;2022-12-31T05:47:43;17.60;99.90
35603;DHT22;21725;50.836;4.368;2022-12-31T05:50:51;17.60;99.90
35603;DHT22;21725;50.836;4.368;2022-12-31T05:53:57;17.80;99.90
35603;DHT22;21725;50.836;4.368;2022-12-31T05:57:03;17.70;99.90
35603;DHT22;21725;50.836;4.368;2022-12-31T06:00:35;17.60;99.90
35603;DHT22;21725;50.836;4.368;2022-12-31T06:03:40;17.80;99.90
35603;DHT22;21725;50.836;4.368;2022-12-31T06:07:01;17.80;99.90
35603;DHT22;21725;50.836;4.368;2022-12-31T06:10:22;18.00;99.90
35603;DHT22;21725;50.836;4.368;2022-12-31T06:13:50;18.00;99.90
35603;DHT22;21725;50.836;4.368;2022-12-31T06:16:54;17.80;99.90
35603;DHT22;21725;50.836;4.368;2022-12-31T06:20:07;17.70;99.90
35603;DHT22;21725;50.836;4.368;2022-12-31T06:23:10;17.80;99.90
35603;DHT22;21725;50.836;4.368;2022-12-31T06:26:16;17.80;99.90
35603;DHT22;21725;50.836;4.368;2022-12-31T06:29:19;17.80;99.90
35603;DHT22;21725;50.836;4.368;2022-12-31T06:32:53;18.00;99.90
35603;DHT22;21725;50.836;4.368;2022-12-31T06:36:05;18.00;99.90
35603;DHT22;21725;50.836;4.368;2022-12-31T06:39:16;18.00;99.90
35603;DHT22;21725;50.836;4.368;2022-12-31T06:42:28;17.90;99.90
35603;DHT22;21725;50.836;4.368;2022-12-31T06:46:02;17.70;99.90
35603;DHT22;21725;50.836;4.368;2022-12-31T06:49:05;17.50;99.90
35603;DHT22;21725;50.836;4.368;2022-12-31T06:55:32;17.90;99.90
35603;DHT22;21725;50.836;4.368;2022-12-31T06:58:36;17.80;99.90
35603;DHT22;21725;50.836;4.368;2022-12-31T07:01:51;17.80;99.90
35603;DHT22;21725;50.836;4.368;2022-12-31T07:12:05;17.30;99.90
35603;DHT22;21725;50.836;4.368;2022-12-31T07:15:27;16.80;99.90
35603;DHT22;21725;50.836;4.368;2022-12-31T07:19:14;17.00;99.90
35603;DHT22;21725;50.836;4.368;2022-12-31T07:22:20;16.90;99.90
35603;DHT22;21725;50.836;4.368;2022-12-31T07:26:02;16.90;99.90
35603;DHT22;21725;50.836;4.368;2022-12-31T07:33:42;17.00;99.90
35603;DHT22;21725;50.836;4.368;2022-12-31T07:44:02;17.30;99.90
35603;DHT22;21725;50.836;4.368;2022-12-31T07:47:27;17.20;99.90
35603;DHT22;21725;50.836;4.368;2022-12-31T07:50:31;17.20;99.90
35603;DHT22;21725;50.836;4.368;2022-12-31T07:53:35;17.00;99.90
35603;DHT22;21725;50.836;4.368;2022-12-31T07:57:01;16.80;99.90
35603;DHT22;21725;50.836;4.368;2022-12-31T08:00:32;16.80;99.90
35603;DHT22;21725;50.836;4.368;2022-12-31T08:14:10;17.30;99.90
35603;DHT22;21725;50.836;4.368;2022-12-31T08:17:29;16.80;99.90
35603;DHT22;21725;50.836;4.368;2022-12-31T08:21:44;17.10;99.90
35603;DHT22;21725;50.836;4.368;2022-12-31T08:25:10;17.30;99.90
35603;DHT22;21725;50.836;4.368;2022-12-31T08:28:28;17.50;99.90
35603;DHT22;21725;50.836;4.368;2022-12-31T08:32:03;17.50;99.90
35603;DHT22;21725;50.836;4.368;2022-12-31T08:35:57;17.50;99.90
35603;DHT22;21725;50.836;4.368;2022-12-31T08:42:54;17.40;99.90
35603;DHT22;21725;50.836;4.368;2022-12-31T08:49:33;16.70;99.90
35603;DHT22;21725;50.836;4.368;2022-12-31T08:52:47;17.50;99.90
35603;DHT22;21725;50.836;4.368;2022-12-31T09:06:31;17.90;99.90
35603;DHT22;21725;50.836;4.368;2022-12-31T09:10:25;17.80;99.90
35603;DHT22;21725;50.836;4.368;2022-12-31T09:21:10;17.70;99.90
35603;DHT22;21725;50.836;4.368;2022-12-31T09:24:35;17.90;99.90
35603;DHT22;21725;50.836;4.368;2022-12-31T09:31:43;17.80;99.90
35603;DHT22;21725;50.836;4.368;2022-12-31T09:35:03;17.80;99.90
35603;DHT22;21725;50.836;4.368;2022-12-31T09:53:05;17.70;99.90
35603;DHT22;21725;50.836;4.368;2022-12-31T10:03:13;17.90;99.90
35603;DHT22;21725;50.836;4.368;2022-12-31T10:23:24;18.00;99.90
35603;DHT22;21725;50.836;4.368;2022-12-31T10:33:09;18.20;99.90
35603;DHT22;21725;50.836;4.368;2022-12-31T10:36:54;18.10;99.90
35603;DHT22;21725;50.836;4.368;2022-12-31T10:54:17;17.70;99.90
35603;DHT22;21725;50.836;4.368;2022-12-31T11:33:40;16.00;99.90
35603;DHT22;21725;50.836;4.368;2022-12-31T12:03:33;18.10;99.90
35603;DHT22;21725;50.836;4.368;2022-12-31T12:06:39;18.10;99.90
35603;DHT22;21725;50.836;4.368;2022-12-31T12:09:43;18.00;99.90
35603;DHT22;21725;50.836;4.368;2022-12-31T12:12:53;17.90;99.90
35603;DHT22;21725;50.836;4.368;2022-12-31T12:16:02;17.90;99.90
35603;DHT22;21725;50.836;4.368;2022-12-31T12:19:16;17.90;99.90
35603;DHT22;21725;50.836;4.368;2022-12-31T12:22:54;18.10;99.90
35603;DHT22;21725;50.836;4.368;2022-12-31T12:26:28;18.10;99.90
35603;DHT22;21725;50.836;4.368;2022-12-31T12:29:33;17.90;99.90
35603;DHT22;21725;50.836;4.368;2022-12-31T12:32:59;17.90;99.90
35603;DHT22;21725;50.836;4.368;2022-12-31T12:36:14;17.90;99.90
35603;DHT22;21725;50.836;4.368;2022-12-31T12:39:35;17.70;99.90
35603;DHT22;21725;50.836;4.368;2022-12-31T12:42:51;17.80;99.90
35603;DHT22;21725;50.836;4.368;2022-12-31T12:49:43;17.90;99.90
35603;DHT22;21725;50.836;4.368;2022-12-31T12:56:36;17.90;99.90
35603;DHT22;21725;50.836;4.368;2022-12-31T13:00:07;18.00;99.90
35603;DHT22;21725;50.836;4.368;2022-12-31T13:11:04;17.60;99.90
35603;DHT22;21725;50.836;4.368;2022-12-31T13:14:30;18.00;99.90
35603;DHT22;21725;50.836;4.368;2022-12-31T13:28:35;18.30;99.90
35603;DHT22;21725;50.836;4.368;2022-12-31T13:32:00;18.40;99.90
35603;DHT22;21725;50.836;4.368;2022-12-31T13:35:32;18.30;99.90
35603;DHT22;21725;50.836;4.368;2022-12-31T13:39:27;18.30;99.90
35603;DHT22;21725;50.836;4.368;2022-12-31T13:43:00;18.30;99.90
35603;DHT22;21725;50.836;4.368;2022-12-31T13:56:14;17.90;99.90
35603;DHT22;21725;50.836;4.368;2022-12-31T13:59:21;17.80;99.90
35603;DHT22;21725;50.836;4.368;2022-12-31T14:02:31;17.90;99.90
35603;DHT22;21725;50.836;4.368;2022-12-31T14:33:29;17.70;99.90
35603;DHT22;21725;50.836;4.368;2022-12-31T14:58:35;17.70;99.90
35603;DHT22;21725;50.836;4.368;2022-12-31T15:02:02;17.70;99.90
35603;DHT22;21725;50.836;4.368;2022-12-31T15:16:05;18.00;99.90
35603;DHT22;21725;50.836;4.368;2022-12-31T15:22:52;17.80;99.90
35603;DHT22;21725;50.836;4.368;2022-12-31T15:26:23;17.80;99.90
35603;DHT22;21725;50.836;4.368;2022-12-31T15:29:49;17.90;99.90
35603;DHT22;21725;50.836;4.368;2022-12-31T15:32:59;17.90;99.90
35603;DHT22;21725;50.836;4.368;2022-12-31T15:36:19;17.80;99.90
35603;DHT22;21725;50.836;4.368;2022-12-31T15:39:44;18.00;99.90
35603;DHT22;21725;50.836;4.368;2022-12-31T15:42:48;17.90;99.90
35603;DHT22;21725;50.836;4.368;2022-12-31T15:46:01;17.90;99.90
35603;DHT22;21725;50.836;4.368;2022-12-31T15:49:19;17.80;99.90
35603;DHT22;21725;50.836;4.368;2022-12-31T15:52:54;17.70;99.90
35603;DHT22;21725;50.836;4.368;2022-12-31T15:56:07;17.50;99.90
35603;DHT22;21725;50.836;4.368;2022-12-31T15:59:33;17.30;99.90
35603;DHT22;21725;50.836;4.368;2022-12-31T16:03:03;17.30;99.90
35603;DHT22;21725;50.836;4.368;2022-12-31T16:06:35;17.30;99.90
35603;DHT22;21725;50.836;4.368;2022-12-31T16:09:45;17.30;99.90
35603;DHT22;21725;50.836;4.368;2022-12-31T16:12:59;17.30;99.90
35603;DHT22;21725;50.836;4.368;2022-12-31T16:16:28;17.30;99.90
35603;DHT22;21725;50.836;4.368;2022-12-31T16:19:34;17.30;99.90
35603;DHT22;21725;50.836;4.368;2022-12-31T16:23:24;17.30;99.90
35603;DHT22;21725;50.836;4.368;2022-12-31T16:26:52;17.30;99.90
35603;DHT22;21725;50.836;4.368;2022-12-31T16:30:34;17.20;99.90
35603;DHT22;21725;50.836;4.368;2022-12-31T16:34:03;17.20;99.90
35603;DHT22;21725;50.836;4.368;2022-12-31T16:37:44;17.00;99.90
35603;DHT22;21725;50.836;4.368;2022-12-31T16:41:27;16.90;99.90
35603;DHT22;21725;50.836;4.368;2022-12-31T16:44:35;16.90;99.80
35603;DHT22;21725;50.836;4.368;2022-12-31T16:47:42;17.00;99.80
35603;DHT22;21725;50.836;4.368;2022-12-31T16:50:45;17.10;99.30
35603;DHT22;21725;50.836;4.368;2022-12-31T16:53:50;17.10;98.80
35603;DHT22;21725;50.836;4.368;2022-12-31T16:56:58;17.20;98.60
35603;DHT22;21725;50.836;4.368;2022-12-31T17:33:39;15.00;99.90
35603;DHT22;21725;50.836;4.368;2022-12-31T17:37:18;17.40;96.70
35603;DHT22;21725;50.836;4.368;2022-12-31T17:40:37;17.50;96.30
35603;DHT22;21725;50.836;4.368;2022-12-31T17:43:48;17.40;96.30
35603;DHT22;21725;50.836;4.368;2022-12-31T17:47:03;17.20;96.20
35603;DHT22;21725;50.836;4.368;2022-12-31T17:50:37;17.00;95.90
35603;DHT22;21725;50.836;4.368;2022-12-31T17:53:41;17.40;95.80
35603;DHT22;21725;50.836;4.368;2022-12-31T17:56:51;17.30;95.90
35603;DHT22;21725;50.836;4.368;2022-12-31T17:59:55;17.30;95.80
35603;DHT22;21725;50.836;4.368;2022-12-31T18:03:01;17.00;96.00
35603;DHT22;21725;50.836;4.368;2022-12-31T18:09:32;17.10;95.90
35603;DHT22;21725;50.836;4.368;2022-12-31T18:12:54;17.30;95.50
35603;DHT22;21725;50.836;4.368;2022-12-31T18:16:04;17.30;95.20
35603;DHT22;21725;50.836;4.368;2022-12-31T18:19:14;17.30;95.10
35603;DHT22;21725;50.836;4.368;2022-12-31T18:22:36;17.30;95.10
35603;DHT22;21725;50.836;4.368;2022-12-31T18:25:42;17.40;94.70
35603;DHT22;21725;50.836;4.368;2022-12-31T18:28:45;17.50;94.40
35603;DHT22;21725;50.836;4.368;2022-12-31T18:32:19;17.50;94.50
35603;DHT22;21725;50.836;4.368;2022-12-31T18:35:31;17.50;94.30
35603;DHT22;21725;50.836;4.368;2022-12-31T18:38:45;17.40;94.60
35603;DHT22;21725;50.836;4.368;2022-12-31T18:41:53;17.30;94.50
35603;DHT22;21725;50.836;4.368;2022-12-31T18:44:54;17.40;94.50
35603;DHT22;21725;50.836;4.368;2022-12-31T18:48:02;17.50;94.40
35603;DHT22;21725;50.836;4.368;2022-12-31T18:51:17;17.30;94.40
35603;DHT22;21725;50.836;4.368;2022-12-31T18:54:31;17.40;94.50
35603;DHT22;21725;50.836;4.368;2022-12-31T18:57:35;17.40;94.30
35603;DHT22;21725;50.836;4.368;2022-12-31T19:00:56;17.40;94.40
35603;DHT22;21725;50.836;4.368;2022-12-31T19:04:09;17.40;94.10
35603;DHT22;21725;50.836;4.368;2022-12-31T19:07:27;17.30;94.30
35603;DHT22;21725;50.836;4.368;2022-12-31T19:10:33;17.30;94.30
35603;DHT22;21725;50.836;4.368;2022-12-31T19:13:41;17.30;94.40
35603;DHT22;21725;50.836;4.368;2022-12-31T19:16:50;17.00;94.30
35603;DHT22;21725;50.836;4.368;2022-12-31T19:19:53;17.20;94.50
35603;DHT22;21725;50.836;4.368;2022-12-31T19:23:05;17.10;94.70
35603;DHT22;21725;50.836;4.368;2022-12-31T19:26:34;17.20;94.60
35603;DHT22;21725;50.836;4.368;2022-12-31T19:29:44;17.00;94.50
35603;DHT22;21725;50.836;4.368;2022-12-31T19:32:48;17.10;94.80
35603;DHT22;21725;50.836;4.368;2022-12-31T19:35:54;17.40;94.80
35603;DHT22;21725;50.836;4.368;2022-12-31T19:38:59;17.30;94.50
35603;DHT22;21725;50.836;4.368;2022-12-31T19:42:07;17.30;94.50
35603;DHT22;21725;50.836;4.368;2022-12-31T19:45:48;17.30;94.50
35603;DHT22;21725;50.836;4.368;2022-12-31T19:48:49;17.20;94.50
35603;DHT22;21725;50.836;4.368;2022-12-31T19:51:52;17.20;94.50
35603;DHT22;21725;50.836;4.368;2022-12-31T19:54:55;17.10;94.20
35603;DHT22;21725;50.836;4.368;2022-12-31T19:57:56;17.10;94.30
35603;DHT22;21725;50.836;4.368;2022-12-31T20:00:59;17.20;94.20
35603;DHT22;21725;50.836;4.368;2022-12-31T20:04:16;17.10;94.30
35603;DHT22;21725;50.836;4.368;2022-12-31T20:07:37;17.30;94.20
35603;DHT22;21725;50.836;4.368;2022-12-31T20:10:48;17.30;94.00
35603;DHT22;21725;50.836;4.368;2022-12-31T20:14:12;17.40;93.80
35603;DHT22;21725;50.836;4.368;2022-12-31T20:17:36;16.80;93.70
35603;DHT22;21725;50.836;4.368;2022-12-31T20:20:53;17.40;93.80
35603;DHT22;21725;50.836;4.368;2022-12-31T20:23:57;17.50;93.50
35603;DHT22;21725;50.836;4.368;2022-12-31T20:27:03;17.60;93.30
35603;DHT22;21725;50.836;4.368;2022-12-31T20:30:09;17.60;93.20
35603;DHT22;21725;50.836;4.368;2022-12-31T20:33:25;17.60;93.20
35603;DHT22;21725;50.836;4.368;2022-12-31T20:36:32;17.40;93.40
35603;DHT22;21725;50.836;4.368;2022-12-31T20:39:40;17.50;93.30
35603;DHT22;21725;50.836;4.368;2022-12-31T20:42:50;17.60;93.20
35603;DHT22;21725;50.836;4.368;2022-12-31T20:45:57;17.60;93.20
35603;DHT22;21725;50.836;4.368;2022-12-31T20:49:03;17.50;93.30
35603;DHT22;21725;50.836;4.368;2022-12-31T20:52:07;17.40;93.30
35603;DHT22;21725;50.836;4.368;2022-12-31T20:55:09;17.20;93.50
35603;DHT22;21725;50.836;4.368;2022-12-31T20:58:15;17.20;93.60
35603;DHT22;21725;50.836;4.368;2022-12-31T21:01:42;17.40;93.70
35603;DHT22;21725;50.836;4.368;2022-12-31T21:04:48;17.20;93.60
35603;DHT22;21725;50.836;4.368;2022-12-31T21:07:54;17.20;93.40
35603;DHT22;21725;50.836;4.368;2022-12-31T21:11:05;17.20;93.40
35603;DHT22;21725;50.836;4.368;2022-12-31T21:14:28;17.40;93.20
35603;DHT22;21725;50.836;4.368;2022-12-31T21:17:32;17.20;93.40
35603;DHT22;21725;50.836;4.368;2022-12-31T21:20:44;17.10;93.50
35603;DHT22;21725;50.836;4.368;2022-12-31T21:24:07;17.20;93.50
35603;DHT22;21725;50.836;4.368;2022-12-31T21:27:13;17.10;93.40
35603;DHT22;21725;50.836;4.368;2022-12-31T21:30:24;17.20;93.50
35603;DHT22;21725;50.836;4.368;2022-12-31T21:33:28;17.20;93.30
35603;DHT22;21725;50.836;4.368;2022-12-31T21:36:49;17.20;93.30
35603;DHT22;21725;50.836;4.368;2022-12-31T21:39:52;17.30;93.40
35603;DHT22;21725;50.836;4.368;2022-12-31T21:42:53;17.30;93.10
35603;DHT22;21725;50.836;4.368;2022-12-31T21:46:17;17.30;93.10
35603;DHT22;21725;50.836;4.368;2022-12-31T21:49:33;17.30;93.00
35603;DHT22;21725;50.836;4.368;2022-12-31T21:52:39;17.40;93.00
35603;DHT22;21725;50.836;4.368;2022-12-31T21:55:55;17.40;93.00
35603;DHT22;21725;50.836;4.368;2022-12-31T21:59:32;17.40;93.00
35603;DHT22;21725;50.836;4.368;2022-12-31T22:03:10;17.30;93.10
35603;DHT22;21725;50.836;4.368;2022-12-31T22:06:35;17.40;93.00
35603;DHT22;21725;50.836;4.368;2022-12-31T22:09:40;17.40;92.60
35603;DHT22;21725;50.836;4.368;2022-12-31T22:12:41;17.50;92.60
35603;DHT22;21725;50.836;4.368;2022-12-31T22:15:58;17.50;92.60
35603;DHT22;21725;50.836;4.368;2022-12-31T22:19:19;17.70;92.30
35603;DHT22;21725;50.836;4.368;2022-12-31T22:22:25;17.70;92.20
35603;DHT22;21725;50.836;4.368;2022-12-31T22:25:36;17.70;92.00
35603;DHT22;21725;50.836;4.368;2022-12-31T22:28:41;17.70;91.80
35603;DHT22;21725;50.836;4.368;2022-12-31T22:31:52;17.70;91.50
35603;DHT22;21725;50.836;4.368;2022-12-31T22:35:10;17.80;91.50
35603;DHT22;21725;50.836;4.368;2022-12-31T22:38:31;17.80;91.30
35603;DHT22;21725;50.836;4.368;2022-12-31T22:41:57;17.70;91.40
35603;DHT22;21725;50.836;4.368;2022-12-31T22:45:04;17.70;91.40
35603;DHT22;21725;50.836;4.368;2022-12-31T22:48:37;17.80;90.90
35603;DHT22;21725;50.836;4.368;2022-12-31T22:51:43;17.70;90.90
35603;DHT22;21725;50.836;4.368;2022-12-31T22:55:07;17.70;90.90
35603;DHT22;21725;50.836;4.368;2022-12-31T22:58:16;17.60;90.70
35603;DHT22;21725;50.836;4.368;2022-12-31T23:34:49;15.90;92.40
35603;DHT22;21725;50.836;4.368;2022-12-31T23:38:05;17.70;90.50
35603;DHT22;21725;50.836;4.368;2022-12-31T23:41:29;17.40;90.40
35603;DHT22;21725;50.836;4.368;2022-12-31T23:44:44;17.70;90.50
35603;DHT22;21725;50.836;4.368;2022-12-31T23:47:59;17.80;90.40
35603;DHT22;21725;50.836;4.368;2022-12-31T23:51:03;17.70;90.40
35603;DHT22;21725;50.836;4.368;2022-12-31T23:57:41;17.60;90.40
